createdAt,value
2022-10-12T00:00:29.753Z,14.73
2022-10-12T00:02:56.498Z,19.95
2022-10-12T00:05:23.157Z,24.52
2022-10-12T00:07:49.786Z,18.17
2022-10-12T00:10:17.793Z,15.13
2022-10-12T00:12:44.850Z,18.98
2022-10-12T00:15:12.208Z,18.77
2022-10-12T00:17:39.065Z,11.85
2022-10-12T00:20:06.572Z,12.82
2022-10-12T00:22:34.098Z,18.42
2022-10-12T00:25:00.772Z,16.40
2022-10-12T00:27:27.427Z,16.27
2022-10-12T00:29:54.066Z,16.35
2022-10-12T00:32:20.876Z,20.52
2022-10-12T00:34:47.451Z,14.07
2022-10-12T00:37:14.124Z,19.23
2022-10-12T00:39:40.767Z,15.40
2022-10-12T00:42:07.563Z,20.63
2022-10-12T00:44:41.731Z,18.45
2022-10-12T00:47:20.443Z,15.70
2022-10-12T00:49:52.946Z,20.15
2022-10-12T00:52:22.010Z,13.65
2022-10-12T00:54:50.388Z,16.63
2022-10-12T00:57:18.322Z,18.67
2022-10-12T00:59:50.220Z,21.30
2022-10-12T01:02:17.288Z,21.40
2022-10-12T01:04:44.514Z,19.40
2022-10-12T01:07:11.301Z,15.57
2022-10-12T01:09:37.940Z,19.17
2022-10-12T01:12:05.825Z,28.38
2022-10-12T01:14:32.495Z,21.83
2022-10-12T01:17:17.237Z,18.83
2022-10-12T01:19:57.114Z,16.83
2022-10-12T01:22:24.014Z,21.30
2022-10-12T01:25:25.014Z,13.75
2022-10-12T01:28:30.023Z,19.20
2022-10-12T01:31:04.191Z,17.70
2022-10-12T01:33:41.052Z,15.20
2022-10-12T01:36:15.886Z,18.60
2022-10-12T01:38:54.183Z,22.25
2022-10-12T01:41:28.704Z,24.25
2022-10-12T01:43:55.436Z,17.98
2022-10-12T01:46:25.033Z,15.63
2022-10-12T01:48:54.628Z,20.70
2022-10-12T01:51:36.167Z,21.92
2022-10-12T01:54:14.881Z,24.85
2022-10-12T01:56:47.738Z,22.00
2022-10-12T01:59:26.293Z,30.17
2022-10-12T02:02:08.106Z,19.23
2022-10-12T02:04:38.594Z,16.73
2022-10-12T02:07:09.026Z,20.90
2022-10-12T02:09:36.136Z,16.75
2022-10-12T02:12:08.388Z,20.25
2022-10-12T02:14:41.195Z,30.27
2022-10-12T02:17:11.502Z,20.65
2022-10-12T02:19:58.878Z,19.67
2022-10-12T02:22:28.479Z,20.73
2022-10-12T02:24:57.508Z,18.63
2022-10-12T02:27:25.784Z,20.60
2022-10-12T02:29:52.779Z,20.70
2022-10-12T02:32:29.883Z,18.08
2022-10-12T02:35:14.259Z,25.95
2022-10-12T02:37:48.795Z,23.25
2022-10-12T02:40:26.715Z,26.67
2022-10-12T02:43:09.935Z,18.70
2022-10-12T02:45:38.895Z,24.83
2022-10-12T02:48:06.319Z,18.15
2022-10-12T02:50:33.313Z,24.90
2022-10-12T02:53:00.494Z,21.50
2022-10-12T02:55:27.155Z,28.70
2022-10-12T02:57:54.666Z,34.22
2022-10-12T03:00:21.775Z,22.98
2022-10-12T03:02:48.399Z,25.23
2022-10-12T03:05:15.034Z,21.63
2022-10-12T03:07:43.325Z,22.52
2022-10-12T03:10:10.038Z,23.15
2022-10-12T03:12:36.971Z,23.05
2022-10-12T03:15:04.858Z,20.52
2022-10-12T03:17:31.531Z,25.90
2022-10-12T03:20:00.209Z,31.73
2022-10-12T03:22:26.923Z,23.17
2022-10-12T03:24:53.834Z,24.83
2022-10-12T03:27:20.487Z,20.23
2022-10-12T03:29:47.068Z,22.50
2022-10-12T03:32:15.938Z,19.95
2022-10-12T03:34:42.608Z,21.17
2022-10-12T03:37:09.273Z,18.98
2022-10-12T03:39:35.920Z,19.98
2022-10-12T03:42:02.525Z,18.25
2022-10-12T03:44:29.233Z,18.10
2022-10-12T03:46:55.897Z,21.70
2022-10-12T03:49:22.560Z,21.98
2022-10-12T03:51:49.205Z,17.73
2022-10-12T03:54:15.782Z,32.22
2022-10-12T03:56:42.536Z,19.80
2022-10-12T03:59:09.148Z,19.92
2022-10-12T04:01:35.779Z,17.55
2022-10-12T04:04:02.790Z,16.13
2022-10-12T04:06:29.375Z,19.00
2022-10-12T04:08:55.984Z,16.75
2022-10-12T04:11:22.994Z,19.88
2022-10-12T04:13:49.626Z,23.70
2022-10-12T04:16:16.242Z,18.25
2022-10-12T04:18:42.843Z,21.33
2022-10-12T04:21:12.579Z,23.45
2022-10-12T04:23:39.474Z,18.38
2022-10-12T04:26:06.108Z,17.95
2022-10-12T04:28:32.989Z,24.00
2022-10-12T04:31:00.017Z,25.17
2022-10-12T04:33:26.744Z,29.42
2022-10-12T04:35:53.367Z,28.15
2022-10-12T04:38:20.003Z,21.67
2022-10-12T04:40:48.040Z,16.17
2022-10-12T04:43:16.027Z,18.70
2022-10-12T04:45:42.760Z,18.50
2022-10-12T04:48:09.367Z,23.67
2022-10-12T04:50:36.053Z,17.27
2022-10-12T04:53:02.622Z,20.20
2022-10-12T04:55:29.251Z,24.13
2022-10-12T04:57:56.087Z,19.80
2022-10-12T05:00:22.698Z,16.85
2022-10-12T05:02:49.272Z,19.50
2022-10-12T05:05:15.981Z,18.45
2022-10-12T05:07:42.557Z,22.13
2022-10-12T05:10:09.335Z,18.58
2022-10-12T05:12:36.214Z,24.30
2022-10-12T05:15:03.007Z,22.98
2022-10-12T05:17:29.634Z,22.52
2022-10-12T05:19:56.308Z,21.63
2022-10-12T05:22:22.920Z,23.73
2022-10-12T05:24:53.673Z,18.52
2022-10-12T05:27:21.056Z,19.73
2022-10-12T05:29:47.806Z,18.38
2022-10-12T05:32:14.587Z,21.65
2022-10-12T05:34:42.309Z,19.25
2022-10-12T05:37:09.063Z,30.80
2022-10-12T05:39:37.256Z,16.58
2022-10-12T05:42:04.184Z,25.17
2022-10-12T05:44:30.808Z,25.75
2022-10-12T05:46:57.469Z,31.23
2022-10-12T05:49:24.075Z,24.65
2022-10-12T05:51:50.655Z,21.80
2022-10-12T05:54:17.347Z,17.75
2022-10-12T05:56:43.920Z,31.05
2022-10-12T05:59:11.492Z,17.50
2022-10-12T06:01:38.364Z,19.52
2022-10-12T06:04:05.095Z,19.92
2022-10-12T06:06:31.783Z,21.40
2022-10-12T06:08:58.518Z,23.00
2022-10-12T06:11:25.220Z,19.85
2022-10-12T06:13:52.150Z,23.95
2022-10-12T06:16:18.712Z,22.23
2022-10-12T06:18:46.096Z,26.70
2022-10-12T06:23:59.339Z,21.42
2022-10-12T06:26:26.022Z,22.00
2022-10-12T06:28:52.735Z,24.05
2022-10-12T06:31:22.936Z,27.75
2022-10-12T06:33:53.529Z,17.58
2022-10-12T06:36:21.057Z,19.92
2022-10-12T06:38:47.960Z,20.10
2022-10-12T06:41:14.803Z,20.77
2022-10-12T06:43:41.467Z,21.63
2022-10-12T06:46:08.447Z,26.92
2022-10-12T06:48:35.143Z,22.38
2022-10-12T06:51:01.714Z,23.13
2022-10-12T06:53:31.054Z,18.20
2022-10-12T06:55:57.825Z,18.00
2022-10-12T06:58:24.887Z,20.42
2022-10-12T07:00:52.410Z,29.30
2022-10-12T07:03:20.310Z,22.30
2022-10-12T07:05:46.915Z,29.85
2022-10-12T07:08:13.654Z,28.55
2022-10-12T07:10:40.526Z,34.40
2022-10-12T07:13:07.161Z,23.42
2022-10-12T07:15:33.801Z,23.02
2022-10-12T07:18:00.411Z,24.42
2022-10-12T07:20:27.028Z,25.77
2022-10-12T07:22:53.641Z,35.22
2022-10-12T07:25:22.193Z,22.77
2022-10-12T07:27:49.395Z,24.85
2022-10-12T07:30:15.991Z,23.02
2022-10-12T07:32:44.843Z,21.52
2022-10-12T07:35:11.438Z,27.33
2022-10-12T07:37:39.560Z,30.20
2022-10-12T07:40:07.058Z,30.98
2022-10-12T07:42:33.639Z,35.45
2022-10-12T07:45:00.238Z,32.13
2022-10-12T07:47:26.842Z,35.50
2022-10-12T07:49:53.465Z,29.25
2022-10-12T07:52:20.077Z,32.63
2022-10-12T07:54:46.782Z,28.70
2022-10-12T07:57:13.363Z,30.55
2022-10-12T07:59:40.158Z,28.17
2022-10-12T08:02:06.821Z,25.08
2022-10-12T08:04:33.438Z,21.25
2022-10-12T08:07:00.018Z,29.02
2022-10-12T08:09:26.692Z,23.40
2022-10-12T08:11:53.297Z,31.35
2022-10-12T08:14:20.079Z,30.98
2022-10-12T08:16:46.969Z,27.83
2022-10-12T08:19:13.711Z,23.08
2022-10-12T08:21:41.960Z,20.52
2022-10-12T08:24:10.177Z,18.42
2022-10-12T08:26:36.846Z,25.88
2022-10-12T08:29:05.308Z,22.10
2022-10-12T08:31:33.857Z,23.35
2022-10-12T08:34:00.773Z,21.80
2022-10-12T08:36:27.675Z,21.95
2022-10-12T08:38:55.194Z,21.40
2022-10-12T08:41:24.769Z,21.63
2022-10-12T08:44:30.695Z,15.70
2022-10-12T08:47:04.932Z,19.73
2022-10-12T08:49:32.294Z,17.83
2022-10-12T08:52:06.316Z,18.95
2022-10-12T08:54:39.115Z,23.98
2022-10-12T08:57:11.629Z,15.20
2022-10-12T08:59:38.228Z,12.80
2022-10-12T09:02:26.227Z,14.20
2022-10-12T09:05:01.886Z,17.23
2022-10-12T09:07:36.265Z,13.45
2022-10-12T09:10:22.900Z,19.60
2022-10-12T09:13:15.102Z,20.27
2022-10-12T09:15:51.286Z,30.40
2022-10-12T09:18:25.925Z,17.02
2022-10-12T09:20:53.050Z,18.27
2022-10-12T09:23:28.220Z,15.35
2022-10-12T09:25:57.974Z,19.90
2022-10-12T09:28:24.580Z,18.65
2022-10-12T09:31:30.521Z,14.82
2022-10-12T09:34:01.610Z,13.95
2022-10-12T09:36:34.702Z,11.07
2022-10-12T09:39:04.064Z,17.13
2022-10-12T09:41:37.994Z,13.73
2022-10-12T09:44:05.532Z,12.10
2022-10-12T09:46:40.069Z,13.40
2022-10-12T09:49:06.912Z,16.63
2022-10-12T09:51:33.563Z,14.25
2022-10-12T09:54:03.954Z,16.83
2022-10-12T09:56:39.829Z,10.57
2022-10-12T09:59:31.026Z,13.05
2022-10-12T10:02:09.799Z,10.73
2022-10-12T10:04:37.232Z,9.20
2022-10-12T10:07:22.375Z,13.90
2022-10-12T10:10:13.493Z,9.80
2022-10-12T10:12:49.773Z,7.97
2022-10-12T10:15:27.963Z,12.07
2022-10-12T10:18:02.872Z,16.08
2022-10-12T10:20:39.583Z,10.30
2022-10-12T10:23:06.424Z,12.25
2022-10-12T10:25:33.842Z,9.13
2022-10-12T10:28:22.959Z,10.98
2022-10-12T10:31:02.724Z,7.15
2022-10-12T10:33:36.257Z,16.35
2022-10-12T10:36:07.127Z,12.60
2022-10-12T10:38:49.968Z,9.77
2022-10-12T10:41:19.972Z,6.35
2022-10-12T10:43:48.333Z,6.47
2022-10-12T10:46:16.153Z,10.00
2022-10-12T10:48:58.546Z,11.02
2022-10-12T10:51:40.624Z,8.60
2022-10-12T10:54:36.348Z,8.13
2022-10-12T10:57:19.222Z,12.05
2022-10-12T10:59:53.168Z,7.43
2022-10-12T11:02:25.795Z,4.88
2022-10-12T11:05:20.484Z,10.43
2022-10-12T11:07:54.308Z,8.32
2022-10-12T11:10:29.273Z,7.80
2022-10-12T11:13:36.352Z,4.18
2022-10-12T11:16:12.363Z,8.18
2022-10-12T11:18:46.883Z,8.63
2022-10-12T11:21:20.240Z,6.40
2022-10-12T11:24:08.657Z,8.65
2022-10-12T11:26:43.673Z,9.75
2022-10-12T11:29:13.866Z,10.00
2022-10-12T11:31:54.004Z,9.93
2022-10-12T11:34:22.590Z,10.20
2022-10-12T11:37:14.646Z,9.80
2022-10-12T11:39:42.800Z,8.20
2022-10-12T11:42:22.160Z,9.63
2022-10-12T11:44:50.000Z,11.85
2022-10-12T11:47:26.341Z,10.80
2022-10-12T11:49:59.502Z,9.35
2022-10-12T11:52:29.358Z,6.05
2022-10-12T11:55:27.585Z,8.75
2022-10-12T11:57:58.144Z,8.40
2022-10-12T12:00:34.608Z,8.30
2022-10-12T12:03:55.444Z,14.40
2022-10-12T12:07:02.632Z,4.65
2022-10-12T12:09:43.271Z,15.38
2022-10-12T12:12:19.885Z,8.55
2022-10-12T12:15:01.894Z,7.72
2022-10-12T12:17:32.221Z,10.05
2022-10-12T12:20:01.080Z,8.15
2022-10-12T12:22:33.695Z,4.38
2022-10-12T12:25:10.875Z,8.43
2022-10-12T12:27:40.087Z,13.73
2022-10-12T12:30:18.874Z,8.85
2022-10-12T12:32:54.333Z,8.07
2022-10-12T12:35:32.576Z,6.43
2022-10-12T12:38:11.224Z,6.20
2022-10-12T12:40:39.720Z,5.28
2022-10-12T12:43:20.422Z,6.20
2022-10-12T12:45:59.456Z,6.32
2022-10-12T12:48:41.516Z,11.35
2022-10-12T12:51:13.945Z,10.15
2022-10-12T12:54:02.532Z,10.20
2022-10-12T12:56:57.268Z,6.70
2022-10-12T12:59:39.167Z,8.02
2022-10-12T13:02:34.468Z,7.30
2022-10-12T13:05:35.765Z,6.15
2022-10-12T13:08:24.016Z,7.07
2022-10-12T13:10:59.806Z,7.22
2022-10-12T13:14:03.262Z,8.52
2022-10-12T13:19:34.149Z,7.03
2022-10-12T13:22:04.852Z,6.07
2022-10-12T13:24:44.383Z,5.75
2022-10-12T13:27:50.758Z,10.52
2022-10-12T13:30:39.391Z,6.55
2022-10-12T13:33:09.653Z,6.95
2022-10-12T13:35:48.199Z,4.20
2022-10-12T13:38:14.761Z,5.40
2022-10-12T13:41:04.086Z,5.03
2022-10-12T13:43:52.351Z,8.80
2022-10-12T13:46:41.025Z,8.70
2022-10-12T13:49:36.139Z,11.38
2022-10-12T13:52:31.904Z,11.07
2022-10-12T13:54:59.324Z,7.78
2022-10-12T13:57:50.465Z,8.93
2022-10-12T14:00:17.149Z,7.57
2022-10-12T14:02:56.821Z,5.40
2022-10-12T14:05:28.585Z,6.28
2022-10-12T14:07:59.017Z,7.10
2022-10-12T14:10:34.151Z,9.57
2022-10-12T14:13:08.132Z,8.25
2022-10-12T14:15:39.967Z,8.57
2022-10-12T14:18:37.824Z,9.18
2022-10-12T14:21:16.616Z,6.32
2022-10-12T14:23:48.410Z,7.43
2022-10-12T14:26:30.718Z,6.70
2022-10-12T14:28:58.899Z,7.28
2022-10-12T14:32:04.075Z,9.98
2022-10-12T14:34:36.044Z,6.18
2022-10-12T14:37:08.924Z,7.07
2022-10-12T14:39:39.108Z,9.88
2022-10-12T14:42:33.922Z,9.35
2022-10-12T14:45:03.729Z,16.20
2022-10-12T14:47:39.899Z,9.77
2022-10-12T14:50:08.823Z,6.18
2022-10-12T14:52:48.149Z,9.23
2022-10-12T14:55:20.789Z,9.85
2022-10-12T14:57:48.252Z,9.93
2022-10-12T15:00:16.957Z,9.70
2022-10-12T15:03:04.930Z,6.05
2022-10-12T15:05:32.808Z,12.18
2022-10-12T15:08:00.518Z,6.40
2022-10-12T15:10:28.257Z,7.55
2022-10-12T15:12:54.875Z,7.10
2022-10-12T15:15:42.776Z,7.57
2022-10-12T15:18:09.774Z,9.38
2022-10-12T15:20:36.692Z,7.35
2022-10-12T15:23:03.263Z,6.97
2022-10-12T15:26:02.021Z,8.75
2022-10-12T15:28:30.732Z,6.32
2022-10-12T15:31:16.483Z,10.93
2022-10-12T15:33:44.439Z,9.10
2022-10-12T15:36:11.149Z,8.38
2022-10-12T15:38:38.970Z,12.73
2022-10-12T15:41:06.003Z,13.13
2022-10-12T15:46:14.332Z,6.90
2022-10-12T15:48:46.238Z,11.13
2022-10-12T15:51:20.641Z,6.15
2022-10-12T15:53:47.399Z,9.00
2022-10-12T15:56:18.076Z,7.03
2022-10-12T15:58:50.655Z,8.70
2022-10-12T16:01:19.350Z,7.75
2022-10-12T16:03:46.891Z,15.45
2022-10-12T16:06:13.651Z,9.77
2022-10-12T16:08:40.732Z,7.78
2022-10-12T16:11:13.492Z,8.82
2022-10-12T16:13:47.025Z,7.55
2022-10-12T16:16:17.403Z,12.27
2022-10-12T16:18:44.579Z,13.18
2022-10-12T16:21:11.933Z,7.20
2022-10-12T16:23:40.038Z,5.70
2022-10-12T16:26:10.125Z,7.40
2022-10-12T16:28:37.097Z,12.10
2022-10-12T16:31:11.821Z,26.02
2022-10-12T16:33:39.277Z,20.55
2022-10-12T16:36:13.371Z,14.20
2022-10-12T16:38:42.217Z,14.38
2022-10-12T16:41:11.022Z,10.27
2022-10-12T16:43:38.851Z,12.65
2022-10-12T16:46:06.415Z,12.35
2022-10-12T16:48:33.455Z,12.98
2022-10-12T16:51:00.222Z,12.75
2022-10-12T16:53:26.858Z,12.68
2022-10-12T16:55:56.742Z,17.20
2022-10-12T16:58:28.480Z,17.55
2022-10-12T17:00:55.508Z,14.32
2022-10-12T17:03:22.366Z,21.27
2022-10-12T17:05:57.712Z,15.50
2022-10-12T17:08:25.005Z,18.20
2022-10-12T17:10:51.662Z,14.20
2022-10-12T17:13:18.565Z,24.30
2022-10-12T17:15:45.197Z,15.95
2022-10-12T17:18:11.803Z,17.40
2022-10-12T17:20:40.494Z,20.67
2022-10-12T17:23:07.131Z,20.02
2022-10-12T17:25:34.728Z,15.43
2022-10-12T17:28:01.412Z,19.52
2022-10-12T17:30:30.164Z,18.50
2022-10-12T17:32:58.334Z,20.17
2022-10-12T17:35:25.054Z,18.23
2022-10-12T17:37:51.813Z,19.15
2022-10-12T17:40:18.586Z,17.90
2022-10-12T17:42:46.403Z,17.30
2022-10-12T17:45:13.101Z,23.75
2022-10-12T17:47:40.275Z,20.92
2022-10-12T17:50:10.531Z,30.73
2022-10-12T17:52:39.777Z,29.38
2022-10-12T17:55:19.253Z,27.40
2022-10-12T17:57:56.128Z,23.40
2022-10-12T18:00:22.839Z,26.15
2022-10-12T18:02:50.234Z,25.45
2022-10-12T18:05:17.239Z,25.98
2022-10-12T18:07:43.915Z,33.05
2022-10-12T18:10:11.437Z,27.23
2022-10-12T18:12:38.055Z,36.88
2022-10-12T18:15:07.480Z,27.33
2022-10-12T18:17:34.768Z,37.58
2022-10-12T18:20:01.772Z,30.77
2022-10-12T18:22:30.212Z,29.30
2022-10-12T18:24:57.175Z,28.42
2022-10-12T18:27:24.807Z,27.25
2022-10-12T18:29:52.622Z,34.72
2022-10-12T18:32:20.066Z,39.10
2022-10-12T18:34:47.087Z,39.42
2022-10-12T18:37:14.847Z,29.70
2022-10-12T18:39:44.077Z,35.35
2022-10-12T18:42:14.459Z,30.48
2022-10-12T18:44:41.837Z,34.63
2022-10-12T18:47:09.640Z,26.55
2022-10-12T18:49:36.364Z,25.52
2022-10-12T18:54:45.000Z,26.05
2022-10-12T18:57:18.430Z,23.60
2022-10-12T18:59:45.147Z,23.55
2022-10-12T19:02:12.189Z,21.75
2022-10-12T19:04:39.073Z,25.33
2022-10-12T19:07:05.752Z,29.40
2022-10-12T19:09:33.056Z,28.05
2022-10-12T19:12:00.221Z,39.05
2022-10-12T19:14:27.017Z,37.95
2022-10-12T19:16:54.001Z,42.13
2022-10-12T19:19:21.695Z,50.58
2022-10-12T19:21:52.010Z,39.15
2022-10-12T19:24:18.928Z,46.65
2022-10-12T19:26:46.260Z,48.15
2022-10-12T19:29:13.068Z,43.80
2022-10-12T19:31:44.547Z,50.00
2022-10-12T19:34:13.300Z,35.08
2022-10-12T19:36:40.464Z,40.80
2022-10-12T19:39:10.054Z,32.00
2022-10-12T19:41:37.437Z,43.33
2022-10-12T19:44:04.621Z,34.25
2022-10-12T19:46:31.836Z,40.90
2022-10-12T19:48:59.996Z,36.40
2022-10-12T19:51:30.922Z,35.10
2022-10-12T19:54:01.307Z,35.38
2022-10-12T19:56:31.379Z,33.53
2022-10-12T19:58:58.490Z,40.58
2022-10-12T20:01:35.243Z,36.75
2022-10-12T20:04:09.003Z,40.03
2022-10-12T20:06:37.225Z,35.17
2022-10-12T20:09:05.053Z,39.75
2022-10-12T20:11:32.606Z,37.63
2022-10-12T20:13:59.680Z,37.38
2022-10-12T20:16:28.991Z,38.20
2022-10-12T20:19:04.154Z,41.10
2022-10-12T20:21:31.362Z,31.58
2022-10-12T20:23:58.062Z,39.80
2022-10-12T20:26:27.864Z,36.97
2022-10-12T20:28:55.604Z,37.30
2022-10-12T20:31:27.517Z,31.38
2022-10-12T20:33:54.854Z,36.70
2022-10-12T20:36:26.820Z,38.13
2022-10-12T20:38:53.955Z,37.15
2022-10-12T20:41:25.438Z,34.40
2022-10-12T20:43:58.010Z,37.90
2022-10-12T20:46:26.278Z,32.58
2022-10-12T20:49:00.616Z,42.20
2022-10-12T20:51:32.547Z,36.55
2022-10-12T20:54:00.845Z,41.05
2022-10-12T20:56:32.589Z,34.72
2022-10-12T20:58:59.998Z,39.22
2022-10-12T21:01:28.327Z,34.00
2022-10-12T21:03:55.890Z,30.38
2022-10-12T21:06:24.024Z,29.15
2022-10-12T21:08:52.663Z,39.97
2022-10-12T21:11:20.195Z,48.00
2022-10-12T21:13:47.191Z,43.97
2022-10-12T21:16:14.469Z,52.65
2022-10-12T21:18:41.832Z,50.28
2022-10-12T21:21:14.280Z,42.20
2022-10-12T21:23:42.311Z,45.10
2022-10-12T21:26:14.666Z,47.15
2022-10-12T21:28:41.432Z,43.08
2022-10-12T21:31:08.424Z,36.17
2022-10-12T21:33:36.332Z,43.63
2022-10-12T21:36:10.536Z,33.90
2022-10-12T21:38:37.494Z,36.40
2022-10-12T21:41:05.491Z,42.88
2022-10-12T21:43:32.476Z,39.42
2022-10-12T21:46:08.027Z,28.90
2022-10-12T21:48:35.409Z,30.92
2022-10-12T21:51:02.578Z,27.23
2022-10-12T21:53:29.739Z,32.33
2022-10-12T21:55:56.539Z,28.85
2022-10-12T21:58:23.196Z,21.52
2022-10-12T22:00:50.028Z,25.98
2022-10-12T22:03:18.114Z,32.00
2022-10-12T22:05:45.647Z,29.02
2022-10-12T22:08:12.331Z,30.35
2022-10-12T22:10:39.364Z,30.45
2022-10-12T22:13:07.174Z,23.48
2022-10-12T22:15:35.484Z,24.70
2022-10-12T22:18:11.322Z,24.63
2022-10-12T22:20:39.125Z,31.10
2022-10-12T22:23:05.780Z,29.77
2022-10-12T22:25:32.489Z,27.92
2022-10-12T22:28:02.220Z,25.45
2022-10-12T22:30:29.203Z,28.63
2022-10-12T22:32:55.838Z,35.05
2022-10-12T22:35:23.024Z,28.25
2022-10-12T22:37:49.897Z,25.95
2022-10-12T22:40:16.646Z,23.83
2022-10-12T22:42:43.323Z,29.00
2022-10-12T22:45:10.030Z,33.15
2022-10-12T22:47:36.713Z,26.05
2022-10-12T22:50:05.858Z,24.50
2022-10-12T22:52:33.596Z,25.48
2022-10-12T22:55:00.575Z,33.00
2022-10-12T22:57:27.239Z,28.77
2022-10-12T22:59:53.975Z,30.20
2022-10-12T23:02:20.944Z,35.83
2022-10-12T23:04:47.890Z,30.50
2022-10-12T23:07:14.528Z,28.58
2022-10-12T23:09:41.442Z,27.33
2022-10-12T23:12:08.157Z,28.20
2022-10-12T23:14:34.850Z,29.67
2022-10-12T23:17:01.557Z,29.42
2022-10-12T23:19:28.126Z,32.38
2022-10-12T23:21:55.455Z,27.08
2022-10-12T23:24:22.123Z,31.00
2022-10-12T23:26:49.014Z,32.58
2022-10-12T23:29:15.672Z,32.20
2022-10-12T23:31:42.430Z,29.98
2022-10-12T23:34:10.917Z,32.17
2022-10-12T23:36:37.524Z,26.58
2022-10-12T23:39:05.359Z,27.10
2022-10-12T23:41:32.355Z,33.50
2022-10-12T23:43:59.035Z,30.95
2022-10-12T23:46:26.090Z,28.08
2022-10-12T23:48:54.948Z,26.20
2022-10-12T23:51:24.482Z,28.65
2022-10-12T23:53:51.127Z,25.23
2022-10-12T23:56:17.824Z,30.50
2022-10-12T23:58:44.519Z,28.50
